Santorini Palace — SYDM — position and weather

sailwx.info

Track history (hours):
 
Tides and Currents Weather Stations Pressure Air Temp Water Temp Dewpoint Dewpoint Depression Visibility Wind Speed Wind Dir Waves Ship Positions

Santorini Palace

Last reported at 2018-Jun-18 12:33 UTC. Time now 2018-Jun-18 13:03 UTC.
Position N 37°03' E 025°03'.

Length 87 m; draft 3.5 m.

Type: High speed craft. MMSI: 240348000.

Date/timePositionNaut miles runAvg speedWind from/ knotsBaromVisibWave heightAir tempDewpointWater temp
2018-Jun-18 12:33N 37°03' E 025°03'135.7
2018-Jun-18 12:30N 37°04' E 025°04'1017.4
2018-Jun-18 11:58N 37°12' E 025°11'1635.3
2018-Jun-18 11:31N 37°27' E 025°18'2 4.5
2018-Jun-18 11:00N 37°25' E 025°17'2222.5
2018-Jun-18 10:02N 37°05' E 025°06'134.7
2018-Jun-18 10:00N 37°04' E 025°05'1 0.0
2018-Jun-16 12:45N 37°03' E 025°03'1218.3
2018-Jun-16 12:06N 37°13' E 025°12'334.4
2018-Jun-16 12:00N 37°16' E 025°13'1323.8
2018-Jun-16 11:29N 37°28' E 025°19'919.8
2018-Jun-16 11:01N 37°19' E 025°15'1620.6
2018-Jun-16 10:13N 37°05' E 025°05'2 0.1
2018-Jun-15 12:39N 37°03' E 025°03'1117.6
2018-Jun-15 12:02N 37°13' E 025°11'134.8
2018-Jun-15 12:00N 37°14' E 025°12'1530.8
2018-Jun-15 11:30N 37°28' E 025°19'714.8
2018-Jun-15 11:00N 37°21' E 025°16'1821.6
2018-Jun-15 10:10N 37°05' E 025°06'2 0.1
2018-Jun-14 12:33N 37°03' E 025°03'135.4
2018-Jun-14 12:31N 37°04' E 025°05'1117.8
2018-Jun-14 11:54N 37°13' E 025°12'1435.2
2018-Jun-14 11:31N 37°27' E 025°17'4 7.0
2018-Jun-14 10:59N 37°23' E 025°17'2022.5
2018-Jun-14 10:05N 37°05' E 025°06'2 0.1
2018-Jun-13 12:35N 37°03' E 025°03'1219.5
2018-Jun-13 11:58N 37°14' E 025°12'1533.4
2018-Jun-13 11:30N 37°28' E 025°19'612.1
2018-Jun-13 10:58N 37°22' E 025°16'1922.0
2018-Jun-13 10:06N 37°05' E 025°05'  
2018-Jun-09 12:37N 37°03' E 025°04'1118.0
2018-Jun-09 12:01N 37°12' E 025°11'134.5
2018-Jun-09 11:58N 37°14' E 025°12'1531.1
2018-Jun-09 11:29N 37°28' E 025°19'510.2
2018-Jun-09 11:01N 37°23' E 025°17'2122.2
2018-Jun-09 10:05N 37°05' E 025°06'2 0.1
2018-Jun-08 12:52N 37°03' E 025°03'  
Track history (hours):
 
Tides and Currents Weather Stations Pressure Air Temp Water Temp Dewpoint Dewpoint Depression Visibility Wind Speed Wind Dir Waves Ship Positions

Santorini Palace

Last reported at 2018-Jun-18 12:33 UTC. Time now 2018-Jun-18 13:03 UTC.
Position N 37°03' E 025°03'.

Length 87 m; draft 3.5 m.

Type: High speed craft. MMSI: 240348000.

Date/timePositionNaut miles runAvg speedWind from/ knotsBaromVisibWave heightAir tempDewpointWater temp
2018-Jun-18 12:33N 37°03' E 025°03'135.7
2018-Jun-18 12:30N 37°04' E 025°04'1017.4
2018-Jun-18 11:58N 37°12' E 025°11'1635.3
2018-Jun-18 11:31N 37°27' E 025°18'2 4.5
2018-Jun-18 11:00N 37°25' E 025°17'2222.5
2018-Jun-18 10:02N 37°05' E 025°06'134.7
2018-Jun-18 10:00N 37°04' E 025°05'1 0.0
2018-Jun-16 12:45N 37°03' E 025°03'1218.3
2018-Jun-16 12:06N 37°13' E 025°12'334.4
2018-Jun-16 12:00N 37°16' E 025°13'1323.8
2018-Jun-16 11:29N 37°28' E 025°19'919.8
2018-Jun-16 11:01N 37°19' E 025°15'1620.6
2018-Jun-16 10:13N 37°05' E 025°05'2 0.1
2018-Jun-15 12:39N 37°03' E 025°03'1117.6
2018-Jun-15 12:02N 37°13' E 025°11'134.8
2018-Jun-15 12:00N 37°14' E 025°12'1530.8
2018-Jun-15 11:30N 37°28' E 025°19'714.8
2018-Jun-15 11:00N 37°21' E 025°16'1821.6
2018-Jun-15 10:10N 37°05' E 025°06'2 0.1
2018-Jun-14 12:33N 37°03' E 025°03'135.4
2018-Jun-14 12:31N 37°04' E 025°05'1117.8
2018-Jun-14 11:54N 37°13' E 025°12'1435.2
2018-Jun-14 11:31N 37°27' E 025°17'4 7.0
2018-Jun-14 10:59N 37°23' E 025°17'2022.5
2018-Jun-14 10:05N 37°05' E 025°06'2 0.1
2018-Jun-13 12:35N 37°03' E 025°03'1219.5
2018-Jun-13 11:58N 37°14' E 025°12'1533.4
2018-Jun-13 11:30N 37°28' E 025°19'612.1
2018-Jun-13 10:58N 37°22' E 025°16'1922.0
2018-Jun-13 10:06N 37°05' E 025°05'  
2018-Jun-09 12:37N 37°03' E 025°04'1118.0
2018-Jun-09 12:01N 37°12' E 025°11'134.5
2018-Jun-09 11:58N 37°14' E 025°12'1531.1
2018-Jun-09 11:29N 37°28' E 025°19'510.2
2018-Jun-09 11:01N 37°23' E 025°17'2122.2
2018-Jun-09 10:05N 37°05' E 025°06'2 0.1
2018-Jun-08 12:52N 37°03' E 025°03'  

Dump ship's entire track history